createdAt,value
2018-02-06T00:01:28.483Z,22.9
2018-02-06T00:11:26.513Z,22.6
2018-02-06T00:21:27.141Z,22.1
2018-02-06T00:31:25.695Z,25.4
2018-02-06T00:41:26.752Z,25.5
2018-02-06T00:51:27.006Z,26.7
2018-02-06T01:01:27.553Z,27.4
2018-02-06T01:11:26.513Z,27.0
2018-02-06T01:21:26.159Z,26.5
2018-02-06T01:31:25.798Z,32.4
2018-02-06T01:41:26.669Z,34.9
2018-02-06T01:51:26.316Z,37.2
2018-02-06T02:01:25.661Z,38.1
2018-02-06T02:11:26.160Z,38.7
2018-02-06T02:21:25.728Z,35.3
2018-02-06T02:31:26.093Z,34.4
2018-02-06T02:41:26.674Z,33.0
2018-02-06T04:41:26.954Z,38.4
2018-02-06T04:51:28.654Z,38.4
2018-02-06T05:01:26.402Z,37.6
2018-02-06T05:11:25.746Z,40.4
2018-02-06T05:21:26.331Z,39.7
2018-02-06T05:31:26.494Z,40.3
2018-02-06T05:41:25.813Z,37.9
2018-02-06T05:51:27.279Z,39.2
2018-02-06T06:01:27.019Z,43.9
2018-02-06T06:11:26.971Z,40.7
2018-02-06T06:21:25.918Z,47.5
2018-02-06T06:31:26.572Z,47.8
2018-02-06T06:41:26.258Z,42.6
2018-02-06T06:51:26.324Z,44.5
2018-02-06T07:01:25.916Z,43.1
2018-02-06T07:11:26.393Z,46.3
2018-02-06T07:21:26.990Z,43.6
2018-02-06T07:31:28.468Z,37.9
2018-02-06T07:41:27.427Z,36.2
2018-02-06T07:51:28.221Z,30.5
2018-02-06T08:01:25.617Z,30.7
2018-02-06T08:11:26.467Z,32.6
2018-02-06T08:21:27.226Z,31.2
2018-02-06T08:31:25.964Z,22.7
2018-02-06T08:41:26.312Z,27.4
2018-02-06T08:51:26.604Z,22.8
2018-02-06T09:01:26.041Z,21.4
2018-02-06T09:11:28.133Z,18.9
2018-02-06T09:21:26.382Z,17.3
2018-02-06T09:31:25.849Z,16.8
2018-02-06T09:41:26.853Z,14.2
2018-02-06T09:51:26.156Z,13.7
2018-02-06T10:01:26.848Z,13.5
2018-02-06T10:11:27.430Z,14.4
2018-02-06T10:21:26.318Z,14.2
2018-02-06T10:31:26.101Z,14.6
2018-02-06T10:41:27.707Z,13.1
2018-02-06T10:51:26.168Z,13.7
2018-02-06T11:01:28.173Z,13.0
2018-02-06T11:11:27.651Z,12.7
2018-02-06T11:21:26.398Z,12.7
2018-02-06T11:31:25.801Z,10.5
2018-02-06T11:41:26.819Z,9.1
2018-02-06T11:51:25.638Z,9.5
2018-02-06T12:01:26.583Z,7.4
2018-02-06T12:11:26.775Z,6.3
2018-02-06T12:21:26.320Z,9.4
2018-02-06T12:31:25.832Z,8.0
2018-02-06T12:41:27.077Z,7.9
2018-02-06T12:51:30.033Z,7.3
2018-02-06T13:01:26.521Z,8.3
2018-02-06T13:11:25.969Z,8.0
2018-02-06T13:21:25.988Z,6.7
2018-02-06T13:31:26.807Z,8.1
2018-02-06T13:41:26.656Z,8.8
2018-02-06T13:51:26.107Z,9.0
2018-02-06T14:01:26.088Z,8.7
2018-02-06T14:11:25.613Z,8.1
2018-02-06T14:21:26.296Z,8.6
2018-02-06T14:31:26.474Z,8.2
2018-02-06T14:41:26.803Z,9.4
2018-02-06T14:51:27.236Z,8.6
2018-02-06T15:01:25.585Z,9.7
2018-02-06T15:11:25.999Z,9.4
2018-02-06T15:21:25.765Z,11.4
2018-02-06T15:31:26.458Z,12.3
2018-02-06T15:41:26.061Z,12.9
2018-02-06T15:51:26.761Z,12.5
2018-02-06T16:01:26.433Z,11.2
2018-02-06T16:11:26.500Z,11.0
2018-02-06T16:21:31.121Z,11.0
2018-02-06T16:31:27.017Z,11.6
2018-02-06T16:41:27.091Z,13.0
2018-02-06T16:51:28.254Z,14.8
2018-02-06T17:01:25.808Z,15.0
2018-02-06T17:11:26.953Z,17.0
2018-02-06T17:21:26.884Z,21.0
2018-02-06T17:31:26.510Z,21.8
2018-02-06T17:41:27.086Z,22.2
2018-02-06T17:51:26.402Z,24.1
2018-02-06T18:01:26.813Z,24.3
2018-02-06T18:11:26.292Z,30.2
2018-02-06T18:21:26.001Z,32.5
2018-02-06T18:31:26.514Z,32.1
2018-02-06T18:41:27.954Z,35.4
2018-02-06T18:51:26.952Z,37.6
2018-02-06T19:01:28.939Z,38.1
2018-02-06T19:11:27.044Z,39.0
2018-02-06T19:21:26.163Z,37.3
2018-02-06T19:31:27.112Z,39.2
2018-02-06T19:41:25.743Z,40.0
2018-02-06T19:51:26.528Z,40.1
2018-02-06T20:01:26.642Z,40.5
2018-02-06T20:11:28.201Z,43.6
2018-02-06T20:21:26.289Z,42.3
2018-02-06T20:31:26.409Z,39.6
2018-02-06T20:41:25.925Z,43.8
2018-02-06T20:51:26.883Z,43.9
2018-02-06T21:01:26.692Z,42.2
2018-02-06T21:11:26.468Z,44.1
2018-02-06T21:21:26.207Z,46.4
2018-02-06T21:31:25.745Z,45.1
2018-02-06T21:41:26.787Z,48.1
2018-02-06T21:51:26.357Z,47.8
2018-02-06T22:01:26.418Z,44.7
2018-02-06T22:11:26.456Z,38.5
2018-02-06T22:21:27.256Z,36.1
2018-02-06T22:31:26.513Z,37.2
2018-02-06T22:41:26.054Z,37.8
2018-02-06T22:51:26.528Z,35.1
2018-02-06T23:01:26.306Z,40.4
2018-02-06T23:11:26.794Z,36.4
2018-02-06T23:21:26.611Z,37.2
2018-02-06T23:31:26.339Z,41.0
2018-02-06T23:41:26.831Z,43.2
2018-02-06T23:51:26.042Z,39.8
